createdAt,value
2022-09-25T00:02:15.144Z,101707.78
2022-09-25T00:07:07.372Z,101709.44
2022-09-25T00:11:57.047Z,101708.56
2022-09-25T00:16:46.716Z,101712.00
2022-09-25T00:21:37.789Z,101712.78
2022-09-25T00:26:31.726Z,101714.50
2022-09-25T00:31:24.706Z,101728.22
2022-09-25T00:36:15.552Z,101726.44
2022-09-25T00:41:06.283Z,101724.63
2022-09-25T00:45:59.078Z,101726.31
2022-09-25T00:50:54.348Z,101721.06
2022-09-25T00:55:47.050Z,101711.47
2022-09-25T01:00:37.268Z,101724.47
2022-09-25T01:05:33.290Z,101713.19
2022-09-25T01:10:24.250Z,101712.41
2022-09-25T01:15:15.868Z,101715.72
2022-09-25T01:20:17.748Z,101727.00
2022-09-25T01:25:18.055Z,101726.09
2022-09-25T01:30:13.886Z,101719.19
2022-09-25T01:35:06.553Z,101716.53
2022-09-25T01:40:04.727Z,101710.50
2022-09-25T01:45:00.000Z,101713.06
2022-09-25T01:49:56.515Z,101718.19
2022-09-25T01:54:51.948Z,101722.47
2022-09-25T01:59:46.942Z,101717.19
2022-09-25T02:04:40.174Z,101712.88
2022-09-25T02:09:37.627Z,101718.84
2022-09-25T02:14:32.442Z,101730.88
2022-09-25T02:19:35.091Z,101724.78
2022-09-25T02:24:29.642Z,101721.28
2022-09-25T02:29:23.339Z,101732.41
2022-09-25T02:34:15.459Z,101725.44
2022-09-25T02:39:08.144Z,101725.38
2022-09-25T02:44:15.559Z,101714.94
2022-09-25T02:49:19.243Z,101713.97
2022-09-25T02:54:18.580Z,101718.22
2022-09-25T02:59:11.588Z,101712.97
2022-09-25T03:04:03.616Z,101716.34
2022-09-25T03:08:59.530Z,101724.00
2022-09-25T03:13:57.528Z,101726.56
2022-09-25T03:18:47.367Z,101722.97
2022-09-25T03:23:37.027Z,101716.00
2022-09-25T03:28:29.650Z,101721.13
2022-09-25T03:33:19.388Z,101715.88
2022-09-25T03:38:10.413Z,101715.13
2022-09-25T03:43:00.145Z,101710.75
2022-09-25T03:47:52.391Z,101713.38
2022-09-25T03:52:42.055Z,101709.06
2022-09-25T03:57:31.696Z,101704.00
2022-09-25T04:02:21.511Z,101710.09
2022-09-25T04:07:14.009Z,101706.72
2022-09-25T04:12:05.594Z,101697.34
2022-09-25T04:16:55.289Z,101697.38
2022-09-25T04:21:44.877Z,101695.78
2022-09-25T04:26:37.662Z,101700.16
2022-09-25T04:31:27.468Z,101690.66
2022-09-25T04:36:19.079Z,101674.09
2022-09-25T04:41:11.156Z,101685.38
2022-09-25T04:46:07.454Z,101685.28
2022-09-25T04:50:58.358Z,101673.94
2022-09-25T04:55:49.403Z,101666.91
2022-09-25T05:00:41.041Z,101678.09
2022-09-25T05:05:34.900Z,101673.63
2022-09-25T05:10:27.450Z,101678.66
2022-09-25T05:15:18.716Z,101682.88
2022-09-25T05:20:11.642Z,101681.06
2022-09-25T05:25:04.968Z,101684.44
2022-09-25T05:29:55.566Z,101687.78
2022-09-25T05:34:46.369Z,101683.38
2022-09-25T05:39:36.919Z,101691.88
2022-09-25T05:44:30.138Z,101686.59
2022-09-25T05:49:21.094Z,101684.84
2022-09-25T05:54:13.568Z,101673.63
2022-09-25T05:59:03.712Z,101676.22
2022-09-25T06:03:56.822Z,101683.09
2022-09-25T06:08:47.831Z,101687.34
2022-09-25T06:13:38.325Z,101682.09
2022-09-25T06:18:31.719Z,101684.69
2022-09-25T06:23:25.707Z,101699.34
2022-09-25T06:28:16.436Z,101706.22
2022-09-25T06:33:10.988Z,101706.34
2022-09-25T06:38:05.698Z,101708.19
2022-09-25T06:43:00.975Z,101704.97
2022-09-25T06:47:51.743Z,101706.06
2022-09-25T06:52:45.667Z,101696.69
2022-09-25T06:57:38.522Z,101706.41
2022-09-25T07:02:44.705Z,101712.75
2022-09-25T07:07:35.112Z,101713.97
2022-09-25T07:12:25.324Z,101716.91
2022-09-25T07:17:15.838Z,101710.22
2022-09-25T07:22:09.512Z,101717.44
2022-09-25T07:27:01.672Z,101722.00
2022-09-25T07:31:52.554Z,101713.56
2022-09-25T07:36:44.579Z,101703.38
2022-09-25T07:41:37.935Z,101709.69
2022-09-25T07:46:29.524Z,101710.72
2022-09-25T07:51:22.268Z,101716.97
2022-09-25T07:56:13.727Z,101723.16
2022-09-25T08:01:11.696Z,101715.47
2022-09-25T08:06:15.248Z,101721.66
2022-09-25T08:11:11.452Z,101720.03
2022-09-25T08:16:02.323Z,101735.69
2022-09-25T08:20:57.842Z,101731.44
2022-09-25T08:25:51.541Z,101727.97
2022-09-25T08:30:44.022Z,101730.63
2022-09-25T08:35:34.565Z,101732.41
2022-09-25T08:40:32.129Z,101729.97
2022-09-25T08:45:43.829Z,101725.03
2022-09-25T08:50:34.010Z,101727.09
2022-09-25T08:55:53.047Z,101725.50
2022-09-25T09:00:43.571Z,101720.44
2022-09-25T09:05:38.051Z,101721.41
2022-09-25T09:10:38.989Z,101728.41
2022-09-25T09:15:37.917Z,101717.13
2022-09-25T09:20:39.937Z,101722.38
2022-09-25T09:25:45.340Z,101725.94
2022-09-25T09:30:41.195Z,101721.63
2022-09-25T09:35:45.773Z,101710.38
2022-09-25T09:41:01.416Z,101718.13
2022-09-25T09:46:02.270Z,101699.78
2022-09-25T09:50:56.312Z,101718.75
2022-09-25T09:55:53.646Z,101709.81
2022-09-25T10:00:45.539Z,101712.38
2022-09-25T10:05:41.904Z,101710.50
2022-09-25T10:10:39.873Z,101698.78
2022-09-25T10:15:38.703Z,101699.22
2022-09-25T10:20:36.710Z,101701.44
2022-09-25T10:25:39.939Z,101702.50
2022-09-25T10:30:32.991Z,101699.81
2022-09-25T10:35:28.254Z,101690.56
2022-09-25T10:40:31.790Z,101688.47
2022-09-25T10:45:34.810Z,101681.03
2022-09-25T10:50:27.263Z,101683.81
2022-09-25T10:55:25.788Z,101683.38
2022-09-25T11:00:24.938Z,101680.16
2022-09-25T11:05:22.763Z,101676.91
2022-09-25T11:10:23.529Z,101676.16
2022-09-25T11:15:22.057Z,101670.88
2022-09-25T11:20:30.634Z,101648.91
2022-09-25T11:25:25.659Z,101650.38
2022-09-25T11:30:19.205Z,101654.38
2022-09-25T11:35:32.188Z,101652.31
2022-09-25T11:40:47.676Z,101640.47
2022-09-25T11:45:43.948Z,101633.41
2022-09-25T11:50:44.601Z,101640.88
2022-09-25T11:55:58.133Z,101636.94
2022-09-25T12:01:00.634Z,101632.13
2022-09-25T12:06:07.864Z,101630.47
2022-09-25T12:11:05.492Z,101627.13
2022-09-25T12:16:04.101Z,101623.69
2022-09-25T12:21:03.994Z,101615.72
2022-09-25T12:26:06.983Z,101607.44
2022-09-25T12:31:09.681Z,101614.84
2022-09-25T12:36:11.149Z,101607.50
2022-09-25T12:41:10.805Z,101598.53
2022-09-25T12:46:11.363Z,101594.75
2022-09-25T12:51:10.603Z,101595.69
2022-09-25T12:56:07.152Z,101586.16
2022-09-25T13:01:06.264Z,101587.34
2022-09-25T13:06:06.149Z,101574.72
2022-09-25T13:11:15.734Z,101569.72
2022-09-25T13:16:06.609Z,101565.59
2022-09-25T13:20:58.536Z,101556.16
2022-09-25T13:25:59.894Z,101548.34
2022-09-25T13:31:11.341Z,101554.13
2022-09-25T13:36:33.702Z,101555.00
2022-09-25T13:41:23.886Z,101558.78
2022-09-25T13:46:34.098Z,101556.25
2022-09-25T13:51:38.702Z,101546.84
2022-09-25T13:56:30.341Z,101544.34
2022-09-25T14:01:37.907Z,101544.44
2022-09-25T14:06:38.331Z,101550.69
2022-09-25T14:11:34.173Z,101539.50
2022-09-25T14:16:38.563Z,101535.19
2022-09-25T14:21:36.511Z,101530.72
2022-09-25T14:26:29.281Z,101521.84
2022-09-25T14:31:40.427Z,101515.66
2022-09-25T14:36:45.665Z,101503.50
2022-09-25T14:42:18.871Z,101506.22
2022-09-25T14:47:13.359Z,101506.41
2022-09-25T14:52:11.560Z,101509.94
2022-09-25T14:57:05.511Z,101503.84
2022-09-25T15:01:56.110Z,101489.94
2022-09-25T15:06:46.881Z,101496.00
2022-09-25T15:11:46.718Z,101494.19
2022-09-25T15:16:49.219Z,101489.81
2022-09-25T15:21:39.627Z,101483.75
2022-09-25T15:26:31.077Z,101485.44
2022-09-25T15:31:25.791Z,101472.44
2022-09-25T15:36:21.898Z,101477.78
2022-09-25T15:41:16.233Z,101451.03
2022-09-25T15:46:39.701Z,101475.38
2022-09-25T15:51:33.628Z,101477.22
2022-09-25T15:56:26.531Z,101482.47
2022-09-25T16:01:31.706Z,101473.88
2022-09-25T16:06:24.028Z,101479.94
2022-09-25T16:11:23.833Z,101479.94
2022-09-25T16:16:21.122Z,101476.53
2022-09-25T16:21:24.617Z,101473.94
2022-09-25T16:26:22.197Z,101466.13
2022-09-25T16:31:13.108Z,101472.22
2022-09-25T16:36:15.837Z,101470.53
2022-09-25T16:41:21.534Z,101470.53
2022-09-25T16:46:17.828Z,101472.25
2022-09-25T16:51:11.288Z,101467.94
2022-09-25T16:56:01.426Z,101468.88
2022-09-25T17:00:53.980Z,101463.66
2022-09-25T17:05:43.678Z,101462.81
2022-09-25T17:10:33.885Z,101460.25
2022-09-25T17:15:26.458Z,101458.53
2022-09-25T17:20:18.820Z,101447.28
2022-09-25T17:25:22.342Z,101439.47
2022-09-25T17:30:13.161Z,101441.25
2022-09-25T17:35:04.099Z,101434.31
2022-09-25T17:39:56.464Z,101430.88
2022-09-25T17:44:49.318Z,101422.22
2022-09-25T17:49:39.237Z,101423.94
2022-09-25T17:54:31.142Z,101430.06
2022-09-25T17:59:23.393Z,101422.25
2022-09-25T18:04:21.978Z,101430.94
2022-09-25T18:09:11.732Z,101422.28
2022-09-25T18:14:02.090Z,101423.19
2022-09-25T18:19:06.780Z,101414.53
2022-09-25T18:23:56.665Z,101406.72
2022-09-25T18:28:46.403Z,101408.47
2022-09-25T18:33:36.090Z,101402.38
2022-09-25T18:38:28.364Z,101383.31
2022-09-25T18:43:18.337Z,101391.97
2022-09-25T18:48:08.343Z,101377.25
2022-09-25T18:53:01.085Z,101372.06
2022-09-25T18:57:53.468Z,101367.72
2022-09-25T19:02:43.268Z,101364.31
2022-09-25T19:07:33.810Z,101352.16
2022-09-25T19:12:24.394Z,101353.06
2022-09-25T19:17:17.374Z,101350.47
2022-09-25T19:22:06.982Z,101350.47
2022-09-25T19:26:57.060Z,101351.34
2022-09-25T19:31:46.985Z,101350.50
2022-09-25T19:36:39.436Z,101345.31
2022-09-25T19:41:31.261Z,101340.16
2022-09-25T19:46:21.615Z,101344.50
2022-09-25T19:51:11.825Z,101325.44
2022-09-25T19:56:04.849Z,101325.44
2022-09-25T20:00:56.920Z,101317.66
2022-09-25T20:05:49.451Z,101314.19
2022-09-25T20:10:40.591Z,101312.47
2022-09-25T20:15:33.837Z,101309.00
2022-09-25T20:20:23.664Z,101309.88
2022-09-25T20:25:13.939Z,101294.25
2022-09-25T20:30:03.712Z,101292.56
2022-09-25T20:34:56.065Z,101289.94
2022-09-25T20:39:45.849Z,101274.38
2022-09-25T20:44:35.500Z,101265.72
2022-09-25T20:49:25.142Z,101275.25
2022-09-25T20:54:17.310Z,101258.78
2022-09-25T20:59:08.022Z,101260.53
2022-09-25T21:03:58.417Z,101257.06
2022-09-25T21:08:48.524Z,101258.78
2022-09-25T21:13:42.872Z,101254.47
2022-09-25T21:18:35.196Z,101257.94
2022-09-25T21:23:25.262Z,101247.56
2022-09-25T21:28:14.964Z,101253.59
2022-09-25T21:33:07.252Z,101244.06
2022-09-25T21:37:56.900Z,101236.28
2022-09-25T21:42:46.711Z,101226.75
2022-09-25T21:47:37.258Z,101202.53
2022-09-25T21:52:31.429Z,101209.44
2022-09-25T21:57:27.358Z,101204.28
2022-09-25T22:02:17.375Z,101189.56
2022-09-25T22:07:07.821Z,101192.19
2022-09-25T22:12:01.474Z,101182.63
2022-09-25T22:16:53.159Z,101179.16
2022-09-25T22:21:43.999Z,101168.75
2022-09-25T22:26:34.344Z,101171.38
2022-09-25T22:31:29.268Z,101156.66
2022-09-25T22:36:18.946Z,101154.94
2022-09-25T22:41:10.274Z,101148.88
2022-09-25T22:46:00.220Z,101135.03
2022-09-25T22:50:59.159Z,101135.03
2022-09-25T22:55:49.445Z,101126.38
2022-09-25T23:00:41.101Z,101098.72
2022-09-25T23:05:31.397Z,101115.13
2022-09-25T23:10:24.649Z,101096.97
2022-09-25T23:15:15.512Z,101088.31
2022-09-25T23:20:06.548Z,101075.31
2022-09-25T23:24:56.548Z,101069.25
2022-09-25T23:29:48.839Z,101064.09
2022-09-25T23:34:38.832Z,101062.34
2022-09-25T23:39:28.523Z,101038.97
2022-09-25T23:44:18.161Z,101032.94
2022-09-25T23:49:11.508Z,101032.09
2022-09-25T23:54:02.916Z,101017.38
2022-09-25T23:58:53.595Z,101008.72
